Time;durP1;ratioP1;P1;durP2;ratioP2;P2;SDS_P1;SDS_P2;PMS_P1;PMS_P2;Temp;Humidity;BMP_temperature;BMP_pressure;BME280_temperature;BME280_humidity;BME280_pressure;Samples;Min_cycle;Max_cycle;Signal;HPM_P1;HPM_P2
2023/12/18 00:00:45;;;;;;;;;;;;;;;-3.09;100.00;99236.65;110368;1241;59737;-61
2023/12/18 00:03:34;;;;;;;;;;;;;;;-3.12;100.00;99235.25;110310;1241;71358;-61
2023/12/18 00:06:06;;;;;;;;;;;;;;;-3.12;100.00;99239.17;110349;1241;69468;-61
2023/12/18 00:08:37;;;;;;;;;;;;;;;-3.11;100.00;99229.47;110327;1242;69341;-61
2023/12/18 00:11:08;;;;;;;;;;;;;;;-3.06;100.00;99222.85;110364;1241;59664;-60
2023/12/18 00:13:38;;;;;;;;;;;;;;;-3.02;100.00;99220.85;110374;1241;59734;-60
2023/12/18 00:16:09;;;;;;;;;;;;;;;-2.96;100.00;99220.05;110370;1241;71402;-60
2023/12/18 00:18:38;;;;;;;;;;;;;;;-2.89;100.00;99218.59;110302;1241;68527;-61
2023/12/18 00:21:09;;;;;;;;;;;;;;;-2.80;100.00;99209.13;110430;1242;68562;-61
2023/12/18 00:23:39;;;;;;;;;;;;;;;-2.72;100.00;99204.76;110475;1241;59713;-60
2023/12/18 00:26:09;;;;;;;;;;;;;;;-2.64;100.00;99207.56;110356;1241;59744;-60
2023/12/18 00:28:40;;;;;;;;;;;;;;;-2.57;100.00;99206.25;110345;1241;71837;-61
2023/12/18 00:31:11;;;;;;;;;;;;;;;-2.50;100.00;99211.27;110334;1240;69329;-60
2023/12/18 00:33:42;;;;;;;;;;;;;;;-2.44;100.00;99213.18;110325;1241;69317;-61
2023/12/18 00:36:13;;;;;;;;;;;;;;;-2.38;100.00;99213.75;110173;1243;59758;-60
2023/12/18 00:38:43;;;;;;;;;;;;;;;-2.33;100.00;99210.88;110401;1242;59695;-60
2023/12/18 00:41:14;;;;;;;;;;;;;;;-2.29;100.00;99205.44;110381;1239;70410;-61
2023/12/18 00:43:44;;;;;;;;;;;;;;;-2.27;100.00;99206.98;110489;1239;69237;-61
2023/12/18 00:46:15;;;;;;;;;;;;;;;-2.28;100.00;99210.23;110372;1242;69879;-60
2023/12/18 00:48:46;;;;;;;;;;;;;;;-2.27;100.00;99210.40;110401;1241;59686;-60
2023/12/18 00:51:16;;;;;;;;;;;;;;;-2.22;100.00;99213.69;110362;1241;59673;-59
2023/12/18 00:53:47;;;;;;;;;;;;;;;-2.21;100.00;99216.44;110434;1241;71225;-60
2023/12/18 00:56:18;;;;;;;;;;;;;;;-2.21;100.00;99219.35;110411;1240;69706;-59
2023/12/18 00:58:47;;;;;;;;;;;;;;;-2.18;100.00;99211.83;110453;1243;69214;-60
2023/12/18 01:01:17;;;;;;;;;;;;;;;-2.16;100.00;99210.32;110209;1244;59755;-59
2023/12/18 01:03:47;;;;;;;;;;;;;;;-2.14;100.00;99209.13;110544;1239;59670;-61
2023/12/18 01:06:17;;;;;;;;;;;;;;;-2.12;100.00;99212.22;110422;1241;71681;-60
2023/12/18 01:08:48;;;;;;;;;;;;;;;-2.10;100.00;99213.27;110466;1242;69288;-61
2023/12/18 01:11:18;;;;;;;;;;;;;;;-2.09;100.00;99207.96;110425;1239;69343;-60
2023/12/18 01:13:49;;;;;;;;;;;;;;;-2.08;100.00;99204.89;110467;1241;59685;-62
2023/12/18 01:16:19;;;;;;;;;;;;;;;-2.08;100.00;99199.61;110402;1241;59750;-62
2023/12/18 01:18:50;;;;;;;;;;;;;;;-2.08;100.00;99191.23;110502;1241;71392;-60
2023/12/18 01:21:21;;;;;;;;;;;;;;;-2.06;100.00;99185.79;110478;1241;69073;-60
2023/12/18 01:23:51;;;;;;;;;;;;;;;-2.05;100.00;99183.23;110459;1241;68330;-60
2023/12/18 01:26:22;;;;;;;;;;;;;;;-2.06;100.00;99180.99;110429;1241;59708;-61
2023/12/18 01:28:53;;;;;;;;;;;;;;;-2.05;100.00;99181.68;110471;1241;59601;-60
2023/12/18 01:31:24;;;;;;;;;;;;;;;-2.06;100.00;99182.88;110545;1241;71405;-60
2023/12/18 01:33:55;;;;;;;;;;;;;;;-2.09;100.00;99178.23;110378;1241;68333;-61
2023/12/18 01:36:25;;;;;;;;;;;;;;;-2.09;100.00;99170.20;110361;1241;69896;-61
2023/12/18 01:38:55;;;;;;;;;;;;;;;-2.09;100.00;99165.77;110354;1241;59674;-62
2023/12/18 01:41:26;;;;;;;;;;;;;;;-2.07;100.00;99164.42;110471;1241;59731;-61
2023/12/18 01:43:57;;;;;;;;;;;;;;;-2.07;100.00;99162.71;110507;1241;69539;-59
2023/12/18 01:46:29;;;;;;;;;;;;;;;-2.06;100.00;99165.45;110502;1242;69371;-59
2023/12/18 01:48:59;;;;;;;;;;;;;;;-2.05;100.00;99162.89;110475;1241;69375;-59
2023/12/18 01:51:30;;;;;;;;;;;;;;;-2.04;100.00;99167.66;110515;1240;59671;-60
2023/12/18 01:54:03;;;;;;;;;;;;;;;-2.00;100.00;99166.34;110026;1240;707886;-59
2023/12/18 01:56:34;;;;;;;;;;;;;;;-1.98;100.00;99168.23;110466;1241;70825;-59
2023/12/18 01:59:09;;;;;;;;;;;;;;;-1.95;100.00;99171.48;110416;1241;68528;-59
2023/12/18 02:01:41;;;;;;;;;;;;;;;-1.93;100.00;99164.83;110346;1240;69367;-61
2023/12/18 02:04:11;;;;;;;;;;;;;;;-1.94;100.00;99164.31;110362;1242;60140;-59
2023/12/18 02:06:44;;;;;;;;;;;;;;;-1.91;100.00;99160.90;110429;1240;59681;-61
2023/12/18 02:09:15;;;;;;;;;;;;;;;-1.91;100.00;99164.15;110434;1241;70698;-58
2023/12/18 02:11:48;;;;;;;;;;;;;;;-1.94;100.00;99166.70;110360;1241;69341;-59
2023/12/18 02:14:19;;;;;;;;;;;;;;;-1.93;100.00;99171.15;110330;1240;68739;-59
2023/12/18 02:16:53;;;;;;;;;;;;;;;-1.89;100.00;99167.25;110437;1242;59673;-58
2023/12/18 02:19:30;;;;;;;;;;;;;;;-1.92;100.00;99169.10;110394;1240;59692;-57
2023/12/18 02:22:01;;;;;;;;;;;;;;;-1.90;100.00;99166.04;110428;1242;72001;-61
2023/12/18 02:24:34;;;;;;;;;;;;;;;-1.86;100.00;99157.17;110413;1241;69391;-57
2023/12/18 02:27:07;;;;;;;;;;;;;;;-1.89;100.00;99147.42;110367;1241;69229;-61
2023/12/18 02:29:38;;;;;;;;;;;;;;;-1.87;100.00;99152.73;110343;1241;59657;-58
2023/12/18 02:32:10;;;;;;;;;;;;;;;-1.92;100.00;99150.31;110414;1241;59758;-59
2023/12/18 02:34:46;;;;;;;;;;;;;;;-1.89;100.00;99140.25;110367;1243;71371;-59
2023/12/18 02:37:19;;;;;;;;;;;;;;;-1.86;100.00;99139.39;110394;1241;68346;-58
2023/12/18 02:39:51;;;;;;;;;;;;;;;-1.84;100.00;99135.66;110506;1241;69621;-61
2023/12/18 02:42:22;;;;;;;;;;;;;;;-1.82;100.00;99145.57;110376;1241;59696;-59
2023/12/18 02:44:56;;;;;;;;;;;;;;;-1.80;100.00;99146.78;110268;1242;59705;-59
2023/12/18 02:47:28;;;;;;;;;;;;;;;-1.77;100.00;99148.50;110233;1241;71460;-59
2023/12/18 02:50:01;;;;;;;;;;;;;;;-1.72;100.00;99153.48;110284;1241;68513;-59
2023/12/18 02:52:34;;;;;;;;;;;;;;;-1.72;100.00;99157.40;110270;1242;69208;-59
2023/12/18 02:55:05;;;;;;;;;;;;;;;-1.72;100.00;99159.64;110228;1245;60083;-60
2023/12/18 02:57:36;;;;;;;;;;;;;;;-1.71;100.00;99155.36;110222;1241;59676;-60
2023/12/18 03:00:07;;;;;;;;;;;;;;;-1.71;100.00;99156.55;110257;1242;71551;-60
2023/12/18 03:02:38;;;;;;;;;;;;;;;-1.76;100.00;99153.98;110228;1240;69460;-60
2023/12/18 03:05:12;;;;;;;;;;;;;;;-1.72;100.00;99156.73;110260;1242;69287;-60
2023/12/18 03:07:42;;;;;;;;;;;;;;;-1.70;100.00;99159.14;110260;1242;59673;-60
2023/12/18 03:10:12;;;;;;;;;;;;;;;-1.70;100.00;99163.06;110301;1242;59684;-59
2023/12/18 03:12:43;;;;;;;;;;;;;;;-1.70;100.00;99166.83;110231;1240;71600;-60
2023/12/18 03:15:14;;;;;;;;;;;;;;;-1.68;100.00;99165.11;110290;1240;68582;-60
2023/12/18 03:17:46;;;;;;;;;;;;;;;-1.65;100.00;99163.77;110265;1242;67476;-60
2023/12/18 03:20:18;;;;;;;;;;;;;;;-1.65;100.00;99159.83;110313;1241;59693;-60
2023/12/18 03:22:49;;;;;;;;;;;;;;;-1.61;100.00;99162.41;110285;1242;59672;-60
2023/12/18 03:25:20;;;;;;;;;;;;;;;-1.57;100.00;99168.92;110232;1242;70647;-59
2023/12/18 03:27:52;;;;;;;;;;;;;;;-1.55;100.00;99170.47;110244;1242;69264;-60
2023/12/18 03:30:26;;;;;;;;;;;;;;;-1.53;100.00;99169.63;110232;1240;69233;-60
2023/12/18 03:32:59;;;;;;;;;;;;;;;-1.51;100.00;99168.79;110092;1245;59729;-60
2023/12/18 03:35:31;;;;;;;;;;;;;;;-1.49;100.00;99168.95;110266;1241;59645;-62
2023/12/18 03:38:02;;;;;;;;;;;;;;;-1.45;100.00;99158.88;110158;1244;71468;-60
2023/12/18 03:40:33;;;;;;;;;;;;;;;-1.46;100.00;99161.44;110182;1241;69691;-61
2023/12/18 03:43:03;;;;;;;;;;;;;;;-1.47;100.00;99153.92;110300;1248;70353;-60
2023/12/18 03:45:33;;;;;;;;;;;;;;;-1.47;100.00;99150.82;110344;1242;59748;-60
2023/12/18 03:48:04;;;;;;;;;;;;;;;-1.47;100.00;99147.42;110350;1242;59652;-61
2023/12/18 03:50:34;;;;;;;;;;;;;;;-1.47;100.00;99148.95;110313;1241;71734;-61
2023/12/18 03:53:04;;;;;;;;;;;;;;;-1.47;100.00;99146.73;110368;1241;68753;-60
2023/12/18 03:55:35;;;;;;;;;;;;;;;-1.48;100.00;99142.10;110330;1242;68361;-61
2023/12/18 03:58:06;;;;;;;;;;;;;;;-1.48;100.00;99144.33;110294;1242;59745;-61
2023/12/18 04:00:36;;;;;;;;;;;;;;;-1.47;100.00;99141.95;110292;1242;59726;-61
2023/12/18 04:03:08;;;;;;;;;;;;;;;-1.45;100.00;99147.58;110295;1241;70714;-61
2023/12/18 04:05:39;;;;;;;;;;;;;;;-1.43;100.00;99145.88;110278;1241;69917;-61
2023/12/18 04:08:09;;;;;;;;;;;;;;;-1.42;100.00;99149.65;110307;1242;69585;-61
2023/12/18 04:10:40;;;;;;;;;;;;;;;-1.48;100.00;99148.78;110283;1242;60077;-61
2023/12/18 04:13:10;;;;;;;;;;;;;;;-1.46;100.00;99146.91;110287;1242;59656;-60
2023/12/18 04:15:40;;;;;;;;;;;;;;;-1.45;100.00;99144.67;110251;1242;70548;-62
2023/12/18 04:18:11;;;;;;;;;;;;;;;-1.44;100.00;99148.60;110261;1242;69281;-62
2023/12/18 04:20:42;;;;;;;;;;;;;;;-1.43;100.00;99143.15;110278;1242;69427;-60
2023/12/18 04:23:12;;;;;;;;;;;;;;;-1.43;100.00;99143.83;110258;1241;59735;-61
2023/12/18 04:25:42;;;;;;;;;;;;;;;-1.43;100.00;99143.14;110258;1242;59683;-61
2023/12/18 04:28:12;;;;;;;;;;;;;;;-1.45;100.00;99140.92;110337;1242;71361;-60
2023/12/18 04:30:45;;;;;;;;;;;;;;;-1.45;100.00;99139.88;110267;1241;68466;-60
2023/12/18 04:33:16;;;;;;;;;;;;;;;-1.46;100.00;99147.59;110207;1242;69354;-60
2023/12/18 04:35:46;;;;;;;;;;;;;;;-1.44;100.00;99136.80;110281;1241;59742;-60
2023/12/18 04:38:16;;;;;;;;;;;;;;;-1.45;100.00;99135.61;110246;1241;59684;-60
2023/12/18 04:40:46;;;;;;;;;;;;;;;-1.46;100.00;99133.73;110256;1245;71269;-60
2023/12/18 04:43:16;;;;;;;;;;;;;;;-1.44;100.00;99127.23;110236;1242;69229;-59
2023/12/18 04:45:48;;;;;;;;;;;;;;;-1.43;100.00;99133.91;110244;1242;69314;-60
2023/12/18 04:48:17;;;;;;;;;;;;;;;-1.41;100.00;99134.77;110240;1242;59653;-60
2023/12/18 04:50:47;;;;;;;;;;;;;;;-1.39;100.00;99132.21;110244;1242;59817;-60
2023/12/18 04:53:17;;;;;;;;;;;;;;;-1.41;100.00;99141.45;110245;1242;71373;-60
2023/12/18 04:55:46;;;;;;;;;;;;;;;-1.39;100.00;99146.56;110244;1242;69233;-60
2023/12/18 04:58:16;;;;;;;;;;;;;;;-1.36;100.00;99151.71;110238;1242;69853;-60
2023/12/18 05:00:45;;;;;;;;;;;;;;;-1.30;100.00;99159.09;110267;1242;59762;-60
2023/12/18 05:03:14;;;;;;;;;;;;;;;-1.25;100.00;99165.77;110274;1242;59981;-60
2023/12/18 05:05:45;;;;;;;;;;;;;;;-1.22;100.00;99162.02;110254;1242;71321;-60
2023/12/18 05:08:15;;;;;;;;;;;;;;;-1.19;100.00;99155.35;110236;1241;69239;-60
2023/12/18 05:10:44;;;;;;;;;;;;;;;-1.17;100.00;99150.56;110241;1241;69314;-60
2023/12/18 05:13:13;;;;;;;;;;;;;;;-1.16;100.00;99151.40;110243;1242;59709;-60
2023/12/18 05:15:43;;;;;;;;;;;;;;;-1.15;100.00;99150.74;110262;1242;59646;-60
2023/12/18 05:18:13;;;;;;;;;;;;;;;-1.14;100.00;99149.38;110116;1244;71379;-61
2023/12/18 05:20:42;;;;;;;;;;;;;;;-1.13;100.00;99143.20;110240;1242;69784;-60
2023/12/18 05:23:12;;;;;;;;;;;;;;;-1.12;100.00;99140.13;110285;1243;69949;-60
2023/12/18 05:25:41;;;;;;;;;;;;;;;-1.10;100.00;99135.01;110267;1240;59689;-60
2023/12/18 05:28:10;;;;;;;;;;;;;;;-1.07;100.00;99129.87;110266;1242;59682;-60
2023/12/18 05:30:39;;;;;;;;;;;;;;;-1.08;100.00;99125.08;110270;1242;71420;-60
2023/12/18 05:33:09;;;;;;;;;;;;;;;-1.09;100.00;99125.42;110291;1242;69142;-60
2023/12/18 05:35:39;;;;;;;;;;;;;;;-1.09;100.00;99124.91;110364;1240;68580;-60
2023/12/18 05:38:08;;;;;;;;;;;;;;;-1.09;100.00;99121.65;110315;1242;59765;-60
2023/12/18 05:40:38;;;;;;;;;;;;;;;-1.10;100.00;99125.42;110298;1242;59633;-60
2023/12/18 05:43:08;;;;;;;;;;;;;;;-1.11;100.00;99125.58;110253;1242;69744;-60
2023/12/18 05:45:37;;;;;;;;;;;;;;;-1.12;100.00;99123.52;110272;1242;68583;-61
2023/12/18 05:48:07;;;;;;;;;;;;;;;-1.11;100.00;99122.86;110254;1248;69727;-61
2023/12/18 05:50:37;;;;;;;;;;;;;;;-1.11;100.00;99127.31;110242;1241;59688;-60
2023/12/18 05:53:07;;;;;;;;;;;;;;;-1.12;100.00;99129.35;110274;1241;59751;-61
2023/12/18 05:55:36;;;;;;;;;;;;;;;-1.11;100.00;99131.76;110258;1242;71455;-60
2023/12/18 05:58:05;;;;;;;;;;;;;;;-1.13;100.00;99127.12;110214;1242;69738;-59
2023/12/18 06:00:36;;;;;;;;;;;;;;;-1.12;100.00;99132.77;110207;1242;69240;-61
2023/12/18 06:03:06;;;;;;;;;;;;;;;-1.11;100.00;99126.29;110248;1242;59708;-61
2023/12/18 06:05:37;;;;;;;;;;;;;;;-1.09;100.00;99119.77;110261;1242;59727;-60
2023/12/18 06:08:06;;;;;;;;;;;;;;;-1.10;100.00;99115.16;110280;1240;71804;-61
2023/12/18 06:10:36;;;;;;;;;;;;;;;-1.11;100.00;99130.38;110302;1242;69819;-60
2023/12/18 06:13:04;;;;;;;;;;;;;;;-1.07;100.00;99133.98;110254;1242;68512;-60
2023/12/18 06:15:34;;;;;;;;;;;;;;;-1.04;100.00;99122.52;110293;1242;59704;-60
2023/12/18 06:18:04;;;;;;;;;;;;;;;-1.04;100.00;99123.03;110271;1242;59735;-60
2023/12/18 06:20:34;;;;;;;;;;;;;;;-1.04;100.00;99114.14;110266;1242;70513;-61
2023/12/18 06:23:06;;;;;;;;;;;;;;;-1.05;100.00;99106.44;110251;1242;69774;-61
2023/12/18 06:25:35;;;;;;;;;;;;;;;-1.06;100.00;99114.48;110244;1242;68550;-60
2023/12/18 06:28:05;;;;;;;;;;;;;;;-1.06;100.00;99125.44;110250;1240;59679;-60
2023/12/18 06:30:35;;;;;;;;;;;;;;;-1.06;100.00;99129.20;110279;1242;59674;-61
2023/12/18 06:33:04;;;;;;;;;;;;;;;-1.05;100.00;99131.93;110236;1242;71998;-61
2023/12/18 06:35:34;;;;;;;;;;;;;;;-1.03;100.00;99131.06;110273;1242;69272;-60
2023/12/18 06:38:03;;;;;;;;;;;;;;;-0.99;100.00;99134.33;110264;1240;69120;-60
2023/12/18 06:40:32;;;;;;;;;;;;;;;-0.95;100.00;99131.94;110294;1241;59705;-61
2023/12/18 06:43:01;;;;;;;;;;;;;;;-0.90;100.00;99133.14;110273;1242;59631;-61
2023/12/18 06:45:31;;;;;;;;;;;;;;;-0.88;100.00;99130.91;110307;1242;70029;-60
2023/12/18 06:48:02;;;;;;;;;;;;;;;-0.85;100.00;99133.13;110251;1242;69756;-61
2023/12/18 06:50:32;;;;;;;;;;;;;;;-0.81;100.00;99129.04;110102;1244;69306;-61
2023/12/18 06:53:02;;;;;;;;;;;;;;;-0.69;100.00;99124.74;110234;1240;59689;-61
2023/12/18 06:55:33;;;;;;;;;;;;;;;-0.58;100.00;99126.27;110305;1242;59731;-61
2023/12/18 06:58:02;;;;;;;;;;;;;;;-0.55;100.00;99129.20;110253;1241;72000;-61
2023/12/18 07:00:31;;;;;;;;;;;;;;;-0.51;100.00;99129.88;110271;1242;69221;-61
2023/12/18 07:03:09;;;;;;;;;;;;;;;-0.47;100.00;99138.95;110228;1242;69117;-62
2023/12/18 07:05:38;;;;;;;;;;;;;;;-0.44;100.00;99134.83;110224;1240;59765;-61
2023/12/18 07:08:08;;;;;;;;;;;;;;;-0.38;100.00;99131.23;110268;1241;59736;-61
2023/12/18 07:10:38;;;;;;;;;;;;;;;-0.34;100.00;99127.12;110217;1242;70996;-61
2023/12/18 07:13:08;;;;;;;;;;;;;;;-0.29;100.00;99121.79;110231;1241;69653;-61
2023/12/18 07:15:38;;;;;;;;;;;;;;;-0.27;100.00;99115.45;110263;1242;68437;-61
2023/12/18 07:18:08;;;;;;;;;;;;;;;-0.26;100.00;99119.73;110222;1242;59745;-61
2023/12/18 07:20:37;;;;;;;;;;;;;;;-0.29;100.00;99116.98;110260;1248;59634;-60
2023/12/18 07:23:08;;;;;;;;;;;;;;;-0.24;100.00;99121.78;110276;1242;70367;-61
2023/12/18 07:25:38;;;;;;;;;;;;;;;-0.19;100.00;99117.66;110261;1242;69233;-61
2023/12/18 07:28:09;;;;;;;;;;;;;;;-0.15;100.00;99117.98;110214;1242;68545;-61
2023/12/18 07:30:39;;;;;;;;;;;;;;;-0.19;100.00;99118.33;110265;1242;59733;-61
2023/12/18 07:33:08;;;;;;;;;;;;;;;-0.18;100.00;99121.94;110250;1242;59801;-61
2023/12/18 07:35:37;;;;;;;;;;;;;;;-0.18;100.00;99120.73;110273;1242;71831;-61
2023/12/18 07:38:07;;;;;;;;;;;;;;;-0.16;100.00;99124.33;110275;1242;69187;-61
2023/12/18 07:40:36;;;;;;;;;;;;;;;-0.25;100.00;99125.72;110235;1242;69809;-61
2023/12/18 07:43:05;;;;;;;;;;;;;;;-0.24;100.00;99120.92;110258;1247;59779;-61
2023/12/18 07:45:34;;;;;;;;;;;;;;;-0.22;100.00;99118.69;110240;1242;59808;-61
2023/12/18 07:48:04;;;;;;;;;;;;;;;-0.36;100.00;99118.89;110278;1241;71348;-61
2023/12/18 07:50:33;;;;;;;;;;;;;;;-0.36;100.00;99117.86;110248;1242;68628;-60
2023/12/18 07:53:03;;;;;;;;;;;;;;;-0.37;100.00;99117.52;110294;1242;68331;-60
2023/12/18 07:55:33;;;;;;;;;;;;;;;-0.40;100.00;99119.76;110252;1242;59745;-61
2023/12/18 07:58:02;;;;;;;;;;;;;;;-0.37;100.00;99119.40;110277;1247;59753;-61
2023/12/18 08:00:31;;;;;;;;;;;;;;;-0.35;100.00;99112.55;110308;1242;71966;-61
2023/12/18 08:03:02;;;;;;;;;;;;;;;-0.22;100.00;99111.32;110275;1242;68483;-61
2023/12/18 08:05:31;;;;;;;;;;;;;;;-0.05;100.00;99109.55;110252;1241;69193;-60
2023/12/18 08:08:01;;;;;;;;;;;;;;;0.04;100.00;99113.64;110247;1242;59719;-61
2023/12/18 08:10:30;;;;;;;;;;;;;;;0.21;100.00;99108.25;110280;1242;59678;-61
2023/12/18 08:13:00;;;;;;;;;;;;;;;0.33;100.00;99106.48;110243;1241;71674;-60
2023/12/18 08:15:30;;;;;;;;;;;;;;;0.49;100.00;99100.06;110219;1243;69106;-61
2023/12/18 08:18:00;;;;;;;;;;;;;;;0.75;100.00;99093.21;110263;1242;69303;-60
2023/12/18 08:20:30;;;;;;;;;;;;;;;0.89;100.00;99092.95;110258;1242;59739;-61
2023/12/18 08:22:59;;;;;;;;;;;;;;;1.13;100.00;99086.92;110279;1250;60127;-61
2023/12/18 08:25:29;;;;;;;;;;;;;;;1.24;100.00;99092.51;110248;1241;71993;-61
2023/12/18 08:27:58;;;;;;;;;;;;;;;1.50;100.00;99096.39;110245;1242;69293;-61
2023/12/18 08:30:28;;;;;;;;;;;;;;;1.78;100.00;99092.14;110276;1247;69323;-61
2023/12/18 08:32:57;;;;;;;;;;;;;;;1.92;100.00;99086.84;110290;1242;59674;-61
2023/12/18 08:35:27;;;;;;;;;;;;;;;2.00;100.00;99088.46;110300;1242;59683;-62
2023/12/18 08:37:56;;;;;;;;;;;;;;;2.13;100.00;99085.73;110297;1245;71370;-62
2023/12/18 08:40:25;;;;;;;;;;;;;;;2.27;100.00;99074.54;110268;1242;69099;-61
2023/12/18 08:42:55;;;;;;;;;;;;;;;2.39;100.00;99071.11;110259;1242;69881;-62
2023/12/18 08:45:24;;;;;;;;;;;;;;;2.56;100.00;99070.18;110306;1242;59742;-62
2023/12/18 08:47:59;;;;;;;;;;;;;;;2.77;100.00;99065.58;110323;1241;59747;-62
2023/12/18 08:50:29;;;;;;;;;;;;;;;2.94;100.00;99063.95;110273;1241;69517;-62
2023/12/18 08:52:58;;;;;;;;;;;;;;;2.96;100.00;99063.05;110279;1242;69207;-61
2023/12/18 08:55:28;;;;;;;;;;;;;;;3.01;100.00;99059.86;110270;1242;69290;-62
2023/12/18 08:57:57;;;;;;;;;;;;;;;3.01;100.00;99057.45;110067;1245;59688;-62
2023/12/18 09:00:26;;;;;;;;;;;;;;;3.15;100.00;99060.15;110273;1242;59700;-61
2023/12/18 09:02:55;;;;;;;;;;;;;;;3.25;100.00;99057.23;110151;1244;70657;-62
2023/12/18 09:05:25;;;;;;;;;;;;;;;3.48;100.00;99055.63;110263;1240;68581;-62
2023/12/18 09:07:54;;;;;;;;;;;;;;;3.38;100.00;99052.00;110286;1242;69239;-62
2023/12/18 09:10:24;;;;;;;;;;;;;;;3.50;100.00;99047.64;110265;1242;59710;-61
2023/12/18 09:12:54;;;;;;;;;;;;;;;3.57;100.00;99044.42;110269;1241;58939;-62
2023/12/18 09:15:23;;;;;;;;;;;;;;;3.58;100.00;99042.86;110257;1242;71420;-62
2023/12/18 09:17:53;;;;;;;;;;;;;;;3.59;99.87;99039.04;110215;1242;68457;-62
2023/12/18 09:20:21;;;;;;;;;;;;;;;3.75;98.97;99030.78;110205;1242;69793;-62
2023/12/18 09:22:52;;;;;;;;;;;;;;;4.03;97.48;99027.11;110232;1242;59748;-60
2023/12/18 09:25:21;;;;;;;;;;;;;;;4.31;97.49;99026.37;110264;1242;59633;-62
2023/12/18 09:27:50;;;;;;;;;;;;;;;4.53;94.87;99025.54;110276;1242;71267;-61
2023/12/18 09:30:19;;;;;;;;;;;;;;;4.82;95.73;99027.95;110329;1240;69810;-61
2023/12/18 09:32:49;;;;;;;;;;;;;;;5.31;94.43;99030.54;110288;1242;70195;-61
2023/12/18 09:35:18;;;;;;;;;;;;;;;5.72;89.05;99028.91;110274;1242;59694;-61
2023/12/18 09:37:48;;;;;;;;;;;;;;;6.03;88.90;99027.21;110270;1241;59707;-61
2023/12/18 09:40:17;;;;;;;;;;;;;;;5.96;84.98;99022.04;110272;1242;72119;-60
2023/12/18 09:42:53;;;;;;;;;;;;;;;5.76;83.95;99020.34;110276;1242;68482;-62
2023/12/18 09:45:25;;;;;;;;;;;;;;;5.63;84.37;99019.66;110247;1241;69781;-59
2023/12/18 09:47:57;;;;;;;;;;;;;;;5.18;85.90;99022.59;110215;1242;59696;-60
2023/12/18 09:50:26;;;;;;;;;;;;;;;5.41;86.17;99020.60;110123;1246;59689;-61
2023/12/18 09:53:01;;;;;;;;;;;;;;;5.63;84.07;99022.25;110250;1242;70630;-60
2023/12/18 09:55:31;;;;;;;;;;;;;;;5.99;80.95;99012.96;110246;1242;69694;-61
2023/12/18 09:58:00;;;;;;;;;;;;;;;6.42;79.20;99006.66;110322;1247;69267;-61
2023/12/18 10:00:30;;;;;;;;;;;;;;;6.90;78.62;99008.98;110287;1242;59670;-62
2023/12/18 10:02:59;;;;;;;;;;;;;;;7.35;75.63;99005.73;110230;1241;59744;-61
2023/12/18 10:05:29;;;;;;;;;;;;;;;7.10;74.84;99001.19;110287;1242;71519;-61
2023/12/18 10:08:01;;;;;;;;;;;;;;;7.36;76.23;99007.25;110303;1243;69327;-61
2023/12/18 10:10:30;;;;;;;;;;;;;;;6.76;75.85;99001.94;110291;1241;67780;-61
2023/12/18 10:13:03;;;;;;;;;;;;;;;6.55;77.73;98999.70;110347;1242;59758;-61
2023/12/18 10:15:35;;;;;;;;;;;;;;;6.53;78.91;98999.25;110135;1245;59758;-60
2023/12/18 10:18:04;;;;;;;;;;;;;;;6.86;77.22;98991.77;110331;1241;72024;-63
2023/12/18 10:20:34;;;;;;;;;;;;;;;7.33;75.59;98989.30;110196;1242;69792;-61
2023/12/18 10:23:04;;;;;;;;;;;;;;;7.86;72.06;98977.90;110185;1242;69211;-61
2023/12/18 10:25:35;;;;;;;;;;;;;;;8.04;70.75;98972.35;110233;1242;59810;-62
2023/12/18 10:28:06;;;;;;;;;;;;;;;8.97;71.54;98973.91;110337;1242;59704;-62
2023/12/18 10:30:35;;;;;;;;;;;;;;;9.81;67.30;98967.48;110257;1242;71249;-62
2023/12/18 10:33:09;;;;;;;;;;;;;;;9.98;63.39;98963.95;110270;1241;68495;-60
2023/12/18 10:35:40;;;;;;;;;;;;;;;10.52;64.40;98958.11;110279;1242;69836;-61
2023/12/18 10:38:10;;;;;;;;;;;;;;;10.23;59.23;98946.61;110259;1242;59703;-59
2023/12/18 10:40:40;;;;;;;;;;;;;;;11.19;58.84;98941.86;110298;1242;59669;-61
2023/12/18 10:43:18;;;;;;;;;;;;;;;11.05;57.14;98935.98;110330;1243;70520;-62
2023/12/18 10:45:48;;;;;;;;;;;;;;;10.63;58.61;98931.77;110258;1242;69828;-60
2023/12/18 10:48:18;;;;;;;;;;;;;;;11.34;56.76;98925.77;110209;1242;69760;-60
2023/12/18 10:50:49;;;;;;;;;;;;;;;11.92;57.20;98920.80;110259;1245;59821;-59
2023/12/18 10:53:18;;;;;;;;;;;;;;;11.27;54.82;98926.28;110300;1242;59750;-62
2023/12/18 10:55:48;;;;;;;;;;;;;;;11.35;56.29;98924.52;110275;1240;71356;-60
2023/12/18 10:58:18;;;;;;;;;;;;;;;11.41;54.83;98926.77;110283;1244;70078;-60
2023/12/18 11:00:48;;;;;;;;;;;;;;;11.16;55.21;98921.62;110304;1243;69964;-60
2023/12/18 11:03:19;;;;;;;;;;;;;;;11.00;54.44;98920.04;110307;1241;59739;-62
2023/12/18 11:05:49;;;;;;;;;;;;;;;11.45;55.00;98917.30;110251;1241;59687;-63
2023/12/18 11:08:18;;;;;;;;;;;;;;;12.34;51.91;98909.75;110279;1242;71427;-61
2023/12/18 11:10:48;;;;;;;;;;;;;;;13.03;53.70;98910.11;110289;1242;68088;-62
2023/12/18 11:13:24;;;;;;;;;;;;;;;13.25;51.84;98905.52;110243;1242;68570;-60
2023/12/18 11:15:59;;;;;;;;;;;;;;;13.26;49.33;98904.38;110270;1245;59747;-61
2023/12/18 11:18:28;;;;;;;;;;;;;;;11.98;50.88;98902.29;110346;1243;59703;-59
2023/12/18 11:20:58;;;;;;;;;;;;;;;11.78;52.00;98899.48;110221;1244;71013;-60
2023/12/18 11:23:27;;;;;;;;;;;;;;;10.92;53.74;98900.36;110327;1243;69347;-62
2023/12/18 11:26:03;;;;;;;;;;;;;;;11.73;53.58;98891.05;110279;1241;70343;-60
2023/12/18 11:28:32;;;;;;;;;;;;;;;12.34;52.51;98881.40;110231;1241;59693;-60
2023/12/18 11:31:04;;;;;;;;;;;;;;;12.20;51.04;98876.84;110245;1244;59754;-60
2023/12/18 11:33:34;;;;;;;;;;;;;;;11.84;52.39;98875.25;110264;1242;71823;-60
2023/12/18 11:36:13;;;;;;;;;;;;;;;11.81;51.83;98875.45;110203;1243;69647;-60
2023/12/18 11:38:43;;;;;;;;;;;;;;;11.97;50.93;98876.67;110245;1242;68533;-61
2023/12/18 11:41:32;;;;;;;;;;;;;;;12.45;51.62;98874.34;110253;1243;59675;-61
2023/12/18 11:44:06;;;;;;;;;;;;;;;12.83;49.90;98869.85;110259;1243;59755;-60
2023/12/18 11:46:35;;;;;;;;;;;;;;;12.32;49.92;98865.11;110273;1242;72008;-58
2023/12/18 11:49:08;;;;;;;;;;;;;;;13.08;49.82;98868.75;110242;1242;69063;-60
2023/12/18 11:51:43;;;;;;;;;;;;;;;13.26;48.61;98866.80;110192;1249;70168;-60
2023/12/18 11:54:17;;;;;;;;;;;;;;;12.39;49.39;98868.20;110239;1241;59726;-61
2023/12/18 11:56:46;;;;;;;;;;;;;;;11.35;51.35;98864.61;110289;1243;59692;-60
2023/12/18 11:59:18;;;;;;;;;;;;;;;12.50;50.43;98860.42;110279;1242;71391;-60
2023/12/18 12:01:49;;;;;;;;;;;;;;;13.12;49.45;98859.39;110257;1242;69731;-60
2023/12/18 12:04:19;;;;;;;;;;;;;;;13.34;48.18;98857.38;110241;1241;69259;-62
2023/12/18 12:06:48;;;;;;;;;;;;;;;13.18;47.47;98852.35;110261;1242;59741;-62
2023/12/18 12:09:17;;;;;;;;;;;;;;;12.74;48.48;98852.86;110252;1243;59676;-61
2023/12/18 12:11:46;;;;;;;;;;;;;;;12.78;48.60;98846.15;110231;1240;71902;-61
2023/12/18 12:14:15;;;;;;;;;;;;;;;12.41;49.00;98847.79;110234;1243;68809;-60
2023/12/18 12:16:44;;;;;;;;;;;;;;;12.57;48.71;98844.61;110296;1249;68870;-62
2023/12/18 12:19:17;;;;;;;;;;;;;;;12.23;49.44;98843.91;110254;1240;59756;-60
2023/12/18 12:21:46;;;;;;;;;;;;;;;12.46;49.98;98843.66;110255;1242;59680;-61
2023/12/18 12:24:16;;;;;;;;;;;;;;;12.75;48.88;98841.46;110320;1241;71957;-61
2023/12/18 12:26:47;;;;;;;;;;;;;;;12.72;49.19;98832.90;110309;1244;68849;-62
2023/12/18 12:29:17;;;;;;;;;;;;;;;12.70;48.78;98831.74;110339;1242;69882;-61
2023/12/18 12:31:46;;;;;;;;;;;;;;;12.85;48.39;98830.72;110280;1239;59747;-60
2023/12/18 12:34:28;;;;;;;;;;;;;;;12.82;48.84;98827.39;110275;1242;59633;-62
2023/12/18 12:37:06;;;;;;;;;;;;;;;13.32;48.13;98822.10;110294;1241;71941;-61
2023/12/18 12:40:05;;;;;;;;;;;;;;;13.27;47.56;98819.94;110272;1242;69830;-60
2023/12/18 12:43:02;;;;;;;;;;;;;;;13.62;47.12;98815.19;110280;1242;69681;-59
2023/12/18 12:45:31;;;;;;;;;;;;;;;13.51;47.12;98810.78;110346;1242;59685;-60
2023/12/18 12:48:05;;;;;;;;;;;;;;;13.55;47.17;98803.73;110436;1242;59675;-61